sensor_id;sensor_type;location;lat;lon;timestamp;temperature;humidity
3860;DHT22;1945;52.036;8.614;2023-04-06T00:00:13;1.10;1.00
3860;DHT22;1945;52.036;8.614;2023-04-06T00:02:42;0.80;1.00
3860;DHT22;1945;52.036;8.614;2023-04-06T00:05:09;1.20;1.00
3860;DHT22;1945;52.036;8.614;2023-04-06T00:07:36;1.20;1.00
3860;DHT22;1945;52.036;8.614;2023-04-06T00:10:03;0.70;1.00
3860;DHT22;1945;52.036;8.614;2023-04-06T00:12:30;0.70;1.00
3860;DHT22;1945;52.036;8.614;2023-04-06T00:14:57;1.10;1.00
3860;DHT22;1945;52.036;8.614;2023-04-06T00:17:23;1.10;1.00
3860;DHT22;1945;52.036;8.614;2023-04-06T00:19:51;1.20;1.00
3860;DHT22;1945;52.036;8.614;2023-04-06T00:22:18;1.20;1.00
3860;DHT22;1945;52.036;8.614;2023-04-06T00:24:45;0.60;1.00
3860;DHT22;1945;52.036;8.614;2023-04-06T00:27:11;0.50;1.00
3860;DHT22;1945;52.036;8.614;2023-04-06T00:29:39;0.80;1.00
3860;DHT22;1945;52.036;8.614;2023-04-06T00:32:06;0.40;1.00
3860;DHT22;1945;52.036;8.614;2023-04-06T00:34:33;0.80;17.90
3860;DHT22;1945;52.036;8.614;2023-04-06T00:37:01;0.90;41.40
3860;DHT22;1945;52.036;8.614;2023-04-06T00:39:28;0.50;51.60
3860;DHT22;1945;52.036;8.614;2023-04-06T00:41:55;0.90;92.40
3860;DHT22;1945;52.036;8.614;2023-04-06T00:44:22;0.80;60.90
3860;DHT22;1945;52.036;8.614;2023-04-06T00:46:49;0.90;18.00
3860;DHT22;1945;52.036;8.614;2023-04-06T00:49:15;0.90;1.00
3860;DHT22;1945;52.036;8.614;2023-04-06T00:51:42;0.80;1.00
3860;DHT22;1945;52.036;8.614;2023-04-06T00:54:10;0.80;1.00
3860;DHT22;1945;52.036;8.614;2023-04-06T00:56:37;0.70;1.00
3860;DHT22;1945;52.036;8.614;2023-04-06T00:59:03;0.30;1.00
3860;DHT22;1945;52.036;8.614;2023-04-06T01:01:31;0.70;1.00
3860;DHT22;1945;52.036;8.614;2023-04-06T01:03:58;0.80;1.00
3860;DHT22;1945;52.036;8.614;2023-04-06T01:06:25;0.10;1.00
3860;DHT22;1945;52.036;8.614;2023-04-06T01:08:52;0.10;1.00
3860;DHT22;1945;52.036;8.614;2023-04-06T01:11:20;0.10;1.00
3860;DHT22;1945;52.036;8.614;2023-04-06T01:13:47;0.50;1.00
3860;DHT22;1945;52.036;8.614;2023-04-06T01:16:13;0.10;1.00
3860;DHT22;1945;52.036;8.614;2023-04-06T01:18:40;0.60;1.00
3860;DHT22;1945;52.036;8.614;2023-04-06T01:21:09;0.50;1.00
3860;DHT22;1945;52.036;8.614;2023-04-06T01:23:42;0.10;1.00
3860;DHT22;1945;52.036;8.614;2023-04-06T01:26:09;0.40;1.00
3860;DHT22;1945;52.036;8.614;2023-04-06T01:28:36;0.50;1.00
3860;DHT22;1945;52.036;8.614;2023-04-06T01:31:04;0.70;1.00
3860;DHT22;1945;52.036;8.614;2023-04-06T01:33:31;0.70;1.00
3860;DHT22;1945;52.036;8.614;2023-04-06T01:35:57;0.50;1.00
3860;DHT22;1945;52.036;8.614;2023-04-06T01:38:24;0.40;1.00
3860;DHT22;1945;52.036;8.614;2023-04-06T01:40:53;0.00;1.00
3860;DHT22;1945;52.036;8.614;2023-04-06T01:43:20;0.00;1.00
3860;DHT22;1945;52.036;8.614;2023-04-06T01:45:46;-0.20;1.00
3860;DHT22;1945;52.036;8.614;2023-04-06T01:48:13;0.40;1.00
3860;DHT22;1945;52.036;8.614;2023-04-06T01:50:40;0.40;1.00
3860;DHT22;1945;52.036;8.614;2023-04-06T01:53:06;-0.10;1.00
3860;DHT22;1945;52.036;8.614;2023-04-06T01:55:33;-0.10;1.00
3860;DHT22;1945;52.036;8.614;2023-04-06T01:58:01;-0.60;1.00
3860;DHT22;1945;52.036;8.614;2023-04-06T02:00:28;-0.60;7.60
3860;DHT22;1945;52.036;8.614;2023-04-06T02:02:54;0.20;1.00
3860;DHT22;1945;52.036;8.614;2023-04-06T02:05:21;-0.30;1.00
3860;DHT22;1945;52.036;8.614;2023-04-06T02:07:47;0.30;1.00
3860;DHT22;1945;52.036;8.614;2023-04-06T02:10:14;0.50;1.00
3860;DHT22;1945;52.036;8.614;2023-04-06T02:12:41;0.40;1.00
3860;DHT22;1945;52.036;8.614;2023-04-06T02:15:10;0.40;1.00
3860;DHT22;1945;52.036;8.614;2023-04-06T02:17:38;-0.10;1.00
3860;DHT22;1945;52.036;8.614;2023-04-06T02:20:06;-0.50;1.00
3860;DHT22;1945;52.036;8.614;2023-04-06T02:22:33;-0.20;1.00
3860;DHT22;1945;52.036;8.614;2023-04-06T02:25:00;0.30;1.00
3860;DHT22;1945;52.036;8.614;2023-04-06T02:27:36;0.30;1.00
3860;DHT22;1945;52.036;8.614;2023-04-06T02:30:03;0.20;1.00
3860;DHT22;1945;52.036;8.614;2023-04-06T02:32:32;-0.30;1.00
3860;DHT22;1945;52.036;8.614;2023-04-06T02:34:58;0.10;1.00
3860;DHT22;1945;52.036;8.614;2023-04-06T02:37:25;0.00;1.00
3860;DHT22;1945;52.036;8.614;2023-04-06T02:39:52;0.00;1.00
3860;DHT22;1945;52.036;8.614;2023-04-06T02:42:18;-0.60;1.00
3860;DHT22;1945;52.036;8.614;2023-04-06T02:44:45;0.10;1.00
3860;DHT22;1945;52.036;8.614;2023-04-06T02:47:12;-0.10;44.50
3860;DHT22;1945;52.036;8.614;2023-04-06T02:49:40;0.00;1.00
3860;DHT22;1945;52.036;8.614;2023-04-06T02:52:06;0.10;1.00
3860;DHT22;1945;52.036;8.614;2023-04-06T02:54:33;-0.50;1.00
3860;DHT22;1945;52.036;8.614;2023-04-06T02:57:00;-0.40;1.00
3860;DHT22;1945;52.036;8.614;2023-04-06T02:59:26;0.20;1.00
3860;DHT22;1945;52.036;8.614;2023-04-06T03:01:53;0.10;1.00
3860;DHT22;1945;52.036;8.614;2023-04-06T03:04:20;-0.10;1.00
3860;DHT22;1945;52.036;8.614;2023-04-06T03:06:49;0.10;1.00
3860;DHT22;1945;52.036;8.614;2023-04-06T03:09:16;0.30;1.00
3860;DHT22;1945;52.036;8.614;2023-04-06T03:11:42;0.10;1.00
3860;DHT22;1945;52.036;8.614;2023-04-06T03:14:09;-0.40;1.00
3860;DHT22;1945;52.036;8.614;2023-04-06T03:16:36;-0.50;1.00
3860;DHT22;1945;52.036;8.614;2023-04-06T03:19:02;-0.30;1.00
3860;DHT22;1945;52.036;8.614;2023-04-06T03:21:29;-0.10;1.00
3860;DHT22;1945;52.036;8.614;2023-04-06T03:23:57;-1.00;1.00
3860;DHT22;1945;52.036;8.614;2023-04-06T03:26:23;0.00;1.00
3860;DHT22;1945;52.036;8.614;2023-04-06T03:28:51;-0.10;1.00
3860;DHT22;1945;52.036;8.614;2023-04-06T03:31:17;-0.60;1.00
3860;DHT22;1945;52.036;8.614;2023-04-06T03:33:44;-0.20;1.00
3860;DHT22;1945;52.036;8.614;2023-04-06T03:36:10;-0.10;1.00
3860;DHT22;1945;52.036;8.614;2023-04-06T03:38:37;-0.10;1.00
3860;DHT22;1945;52.036;8.614;2023-04-06T03:41:05;-0.20;1.00
3860;DHT22;1945;52.036;8.614;2023-04-06T03:43:32;-0.20;1.00
3860;DHT22;1945;52.036;8.614;2023-04-06T03:45:58;-0.20;1.00
3860;DHT22;1945;52.036;8.614;2023-04-06T03:48:25;0.10;1.00
3860;DHT22;1945;52.036;8.614;2023-04-06T03:50:52;0.00;1.00
3860;DHT22;1945;52.036;8.614;2023-04-06T03:53:18;-0.20;1.00
3860;DHT22;1945;52.036;8.614;2023-04-06T03:55:45;-0.20;1.00
3860;DHT22;1945;52.036;8.614;2023-04-06T03:58:13;-0.20;1.00
3860;DHT22;1945;52.036;8.614;2023-04-06T04:00:40;-0.20;1.00
3860;DHT22;1945;52.036;8.614;2023-04-06T04:03:07;-0.20;1.00
3860;DHT22;1945;52.036;8.614;2023-04-06T04:05:33;-0.90;1.00
3860;DHT22;1945;52.036;8.614;2023-04-06T04:08:00;-0.30;1.00
3860;DHT22;1945;52.036;8.614;2023-04-06T04:10:27;-0.30;1.00
3860;DHT22;1945;52.036;8.614;2023-04-06T04:12:54;-0.20;1.00
3860;DHT22;1945;52.036;8.614;2023-04-06T04:15:22;-0.90;1.00
3860;DHT22;1945;52.036;8.614;2023-04-06T04:17:48;-1.00;1.00
3860;DHT22;1945;52.036;8.614;2023-04-06T04:20:16;-1.00;1.00
3860;DHT22;1945;52.036;8.614;2023-04-06T04:22:43;-0.40;1.00
3860;DHT22;1945;52.036;8.614;2023-04-06T04:25:09;-1.00;1.00
3860;DHT22;1945;52.036;8.614;2023-04-06T04:27:36;-0.70;1.00
3860;DHT22;1945;52.036;8.614;2023-04-06T04:30:03;-1.00;1.00
3860;DHT22;1945;52.036;8.614;2023-04-06T04:32:31;-1.00;1.00
3860;DHT22;1945;52.036;8.614;2023-04-06T04:34:58;-1.00;1.00
3860;DHT22;1945;52.036;8.614;2023-04-06T04:37:25;-0.90;1.00
3860;DHT22;1945;52.036;8.614;2023-04-06T04:39:51;-0.30;1.00
3860;DHT22;1945;52.036;8.614;2023-04-06T04:42:18;-1.00;1.00
3860;DHT22;1945;52.036;8.614;2023-04-06T04:44:45;-0.60;1.00
3860;DHT22;1945;52.036;8.614;2023-04-06T04:47:11;-0.70;1.00
3860;DHT22;1945;52.036;8.614;2023-04-06T04:49:39;-0.50;1.00
3860;DHT22;1945;52.036;8.614;2023-04-06T04:52:06;-0.50;1.00
3860;DHT22;1945;52.036;8.614;2023-04-06T04:54:32;-0.50;1.00
3860;DHT22;1945;52.036;8.614;2023-04-06T04:56:59;-0.50;1.00
3860;DHT22;1945;52.036;8.614;2023-04-06T04:59:26;-0.60;1.00
3860;DHT22;1945;52.036;8.614;2023-04-06T05:01:54;-0.90;1.00
3860;DHT22;1945;52.036;8.614;2023-04-06T05:04:22;-0.10;1.00
3860;DHT22;1945;52.036;8.614;2023-04-06T05:06:50;0.20;1.00
3860;DHT22;1945;52.036;8.614;2023-04-06T05:09:17;-0.20;1.00
3860;DHT22;1945;52.036;8.614;2023-04-06T05:11:44;0.80;1.00
3860;DHT22;1945;52.036;8.614;2023-04-06T05:14:10;1.00;1.00
3860;DHT22;1945;52.036;8.614;2023-04-06T05:16:37;1.30;1.00
3860;DHT22;1945;52.036;8.614;2023-04-06T05:19:03;0.80;1.00
3860;DHT22;1945;52.036;8.614;2023-04-06T05:21:30;1.70;1.00
3860;DHT22;1945;52.036;8.614;2023-04-06T05:23:58;2.00;1.00
3860;DHT22;1945;52.036;8.614;2023-04-06T05:26:27;1.50;1.00
3860;DHT22;1945;52.036;8.614;2023-04-06T05:28:54;1.70;1.00
3860;DHT22;1945;52.036;8.614;2023-04-06T05:31:21;2.20;1.00
3860;DHT22;1945;52.036;8.614;2023-04-06T05:33:47;2.30;1.00
3860;DHT22;1945;52.036;8.614;2023-04-06T05:36:14;3.00;1.00
3860;DHT22;1945;52.036;8.614;2023-04-06T05:38:42;3.20;99.90
3860;DHT22;1945;52.036;8.614;2023-04-06T05:41:10;2.90;99.90
3860;DHT22;1945;52.036;8.614;2023-04-06T05:43:37;3.50;99.90
3860;DHT22;1945;52.036;8.614;2023-04-06T05:46:04;3.80;99.90
3860;DHT22;1945;52.036;8.614;2023-04-06T05:48:31;3.40;99.90
3860;DHT22;1945;52.036;8.614;2023-04-06T05:50:58;3.70;99.90
3860;DHT22;1945;52.036;8.614;2023-04-06T05:53:25;4.00;99.90
3860;DHT22;1945;52.036;8.614;2023-04-06T05:55:51;4.10;94.20
3860;DHT22;1945;52.036;8.614;2023-04-06T05:58:20;4.30;97.40
3860;DHT22;1945;52.036;8.614;2023-04-06T06:00:46;4.70;3.70
3860;DHT22;1945;52.036;8.614;2023-04-06T06:03:13;4.60;1.00
3860;DHT22;1945;52.036;8.614;2023-04-06T06:05:40;4.90;1.00
3860;DHT22;1945;52.036;8.614;2023-04-06T06:08:07;5.10;1.00
3860;DHT22;1945;52.036;8.614;2023-04-06T06:10:34;5.30;1.00
3860;DHT22;1945;52.036;8.614;2023-04-06T06:13:03;5.50;1.00
3860;DHT22;1945;52.036;8.614;2023-04-06T06:15:31;5.00;1.00
3860;DHT22;1945;52.036;8.614;2023-04-06T06:17:58;5.50;1.00
3860;DHT22;1945;52.036;8.614;2023-04-06T06:20:24;6.40;1.00
3860;DHT22;1945;52.036;8.614;2023-04-06T06:22:52;6.00;1.00
3860;DHT22;1945;52.036;8.614;2023-04-06T06:25:19;6.40;1.00
3860;DHT22;1945;52.036;8.614;2023-04-06T06:27:46;6.60;1.00
3860;DHT22;1945;52.036;8.614;2023-04-06T06:30:13;6.80;1.00
3860;DHT22;1945;52.036;8.614;2023-04-06T06:32:41;7.00;1.00
3860;DHT22;1945;52.036;8.614;2023-04-06T06:35:08;7.20;1.00
3860;DHT22;1945;52.036;8.614;2023-04-06T06:37:35;7.40;1.00
3860;DHT22;1945;52.036;8.614;2023-04-06T06:40:02;7.90;1.00
3860;DHT22;1945;52.036;8.614;2023-04-06T06:42:28;8.00;1.00
3860;DHT22;1945;52.036;8.614;2023-04-06T06:44:55;8.60;1.00
3860;DHT22;1945;52.036;8.614;2023-04-06T06:47:22;8.40;1.00
3860;DHT22;1945;52.036;8.614;2023-04-06T06:49:50;8.60;1.00
3860;DHT22;1945;52.036;8.614;2023-04-06T06:52:17;8.80;1.00
3860;DHT22;1945;52.036;8.614;2023-04-06T06:54:44;8.70;1.00
3860;DHT22;1945;52.036;8.614;2023-04-06T06:57:11;8.50;1.00
3860;DHT22;1945;52.036;8.614;2023-04-06T06:59:37;8.50;1.00
3860;DHT22;1945;52.036;8.614;2023-04-06T07:02:04;8.50;1.00
3860;DHT22;1945;52.036;8.614;2023-04-06T07:04:30;8.20;1.00
3860;DHT22;1945;52.036;8.614;2023-04-06T07:06:58;8.40;1.00
3860;DHT22;1945;52.036;8.614;2023-04-06T07:09:26;8.20;1.00
3860;DHT22;1945;52.036;8.614;2023-04-06T07:11:53;8.50;1.00
3860;DHT22;1945;52.036;8.614;2023-04-06T07:14:22;8.60;1.00
3860;DHT22;1945;52.036;8.614;2023-04-06T07:16:48;8.60;1.00
3860;DHT22;1945;52.036;8.614;2023-04-06T07:19:16;8.80;1.00
3860;DHT22;1945;52.036;8.614;2023-04-06T07:21:43;9.10;1.00
3860;DHT22;1945;52.036;8.614;2023-04-06T07:24:11;9.20;1.00
3860;DHT22;1945;52.036;8.614;2023-04-06T07:26:37;9.30;1.00
3860;DHT22;1945;52.036;8.614;2023-04-06T07:29:04;9.40;1.00
3860;DHT22;1945;52.036;8.614;2023-04-06T07:31:31;9.60;1.00
3860;DHT22;1945;52.036;8.614;2023-04-06T07:33:57;9.50;1.00
3860;DHT22;1945;52.036;8.614;2023-04-06T07:36:25;9.90;1.00
3860;DHT22;1945;52.036;8.614;2023-04-06T07:38:51;10.00;1.00
3860;DHT22;1945;52.036;8.614;2023-04-06T07:41:20;10.20;1.00
3860;DHT22;1945;52.036;8.614;2023-04-06T07:43:46;10.40;1.00
3860;DHT22;1945;52.036;8.614;2023-04-06T07:46:13;10.30;1.00
3860;DHT22;1945;52.036;8.614;2023-04-06T07:48:40;10.50;1.00
3860;DHT22;1945;52.036;8.614;2023-04-06T07:51:06;10.70;1.00
3860;DHT22;1945;52.036;8.614;2023-04-06T07:53:37;10.80;1.00
3860;DHT22;1945;52.036;8.614;2023-04-06T07:56:04;10.60;1.00
3860;DHT22;1945;52.036;8.614;2023-04-06T07:58:32;11.00;99.90
3860;DHT22;1945;52.036;8.614;2023-04-06T08:00:58;10.90;99.90
3860;DHT22;1945;52.036;8.614;2023-04-06T08:03:25;10.80;99.90
3860;DHT22;1945;52.036;8.614;2023-04-06T08:05:52;11.00;99.90
3860;DHT22;1945;52.036;8.614;2023-04-06T08:08:19;11.60;99.90
3860;DHT22;1945;52.036;8.614;2023-04-06T08:10:49;11.30;1.00
3860;DHT22;1945;52.036;8.614;2023-04-06T08:13:16;11.00;1.00
3860;DHT22;1945;52.036;8.614;2023-04-06T08:15:44;11.00;99.90
3860;DHT22;1945;52.036;8.614;2023-04-06T08:18:11;11.30;1.00
3860;DHT22;1945;52.036;8.614;2023-04-06T08:20:38;11.40;99.90
3860;DHT22;1945;52.036;8.614;2023-04-06T08:23:05;11.00;99.90
3860;DHT22;1945;52.036;8.614;2023-04-06T08:25:35;11.00;1.00
3860;DHT22;1945;52.036;8.614;2023-04-06T08:28:02;10.90;99.90
3860;DHT22;1945;52.036;8.614;2023-04-06T08:30:29;10.90;99.90
3860;DHT22;1945;52.036;8.614;2023-04-06T08:32:57;11.00;99.90
3860;DHT22;1945;52.036;8.614;2023-04-06T08:35:24;11.40;1.00
3860;DHT22;1945;52.036;8.614;2023-04-06T08:37:52;11.30;99.90
3860;DHT22;1945;52.036;8.614;2023-04-06T08:40:18;11.30;99.90
3860;DHT22;1945;52.036;8.614;2023-04-06T08:42:50;11.10;99.90
3860;DHT22;1945;52.036;8.614;2023-04-06T08:45:18;11.00;99.90
3860;DHT22;1945;52.036;8.614;2023-04-06T08:47:49;11.30;1.00
3860;DHT22;1945;52.036;8.614;2023-04-06T08:50:18;11.40;99.90
3860;DHT22;1945;52.036;8.614;2023-04-06T08:52:47;11.30;99.90
3860;DHT22;1945;52.036;8.614;2023-04-06T08:55:13;11.20;99.90
3860;DHT22;1945;52.036;8.614;2023-04-06T08:57:41;11.40;99.90
3860;DHT22;1945;52.036;8.614;2023-04-06T09:00:10;11.60;1.00
3860;DHT22;1945;52.036;8.614;2023-04-06T09:02:39;11.80;1.00
3860;DHT22;1945;52.036;8.614;2023-04-06T09:05:07;11.80;99.90
3860;DHT22;1945;52.036;8.614;2023-04-06T09:07:36;11.60;99.90
3860;DHT22;1945;52.036;8.614;2023-04-06T09:10:03;11.60;99.90
3860;DHT22;1945;52.036;8.614;2023-04-06T09:12:31;11.50;99.90
3860;DHT22;1945;52.036;8.614;2023-04-06T09:14:59;11.90;99.90
3860;DHT22;1945;52.036;8.614;2023-04-06T09:17:27;11.50;99.90
3860;DHT22;1945;52.036;8.614;2023-04-06T09:19:55;11.60;99.90
3860;DHT22;1945;52.036;8.614;2023-04-06T09:22:22;11.50;99.90
3860;DHT22;1945;52.036;8.614;2023-04-06T09:24:52;11.60;99.90
3860;DHT22;1945;52.036;8.614;2023-04-06T09:27:30;11.80;99.90
3860;DHT22;1945;52.036;8.614;2023-04-06T09:30:03;11.80;99.90
3860;DHT22;1945;52.036;8.614;2023-04-06T09:32:30;12.00;99.90
3860;DHT22;1945;52.036;8.614;2023-04-06T09:35:06;11.80;99.90
3860;DHT22;1945;52.036;8.614;2023-04-06T09:37:33;12.20;99.90
3860;DHT22;1945;52.036;8.614;2023-04-06T09:40:04;12.10;99.90
3860;DHT22;1945;52.036;8.614;2023-04-06T09:42:31;12.40;99.90
3860;DHT22;1945;52.036;8.614;2023-04-06T09:44:58;12.30;99.90
3860;DHT22;1945;52.036;8.614;2023-04-06T09:47:25;12.80;99.90
3860;DHT22;1945;52.036;8.614;2023-04-06T09:49:56;13.10;99.90
3860;DHT22;1945;52.036;8.614;2023-04-06T09:52:24;12.80;99.90
3860;DHT22;1945;52.036;8.614;2023-04-06T09:54:55;12.80;99.90
3860;DHT22;1945;52.036;8.614;2023-04-06T09:57:27;12.90;99.90
3860;DHT22;1945;52.036;8.614;2023-04-06T10:00:01;12.80;99.90
3860;DHT22;1945;52.036;8.614;2023-04-06T10:02:39;13.00;99.90
3860;DHT22;1945;52.036;8.614;2023-04-06T10:05:09;13.10;99.90
3860;DHT22;1945;52.036;8.614;2023-04-06T10:07:39;13.00;99.90
3860;DHT22;1945;52.036;8.614;2023-04-06T10:10:07;13.00;99.90
3860;DHT22;1945;52.036;8.614;2023-04-06T10:12:36;13.00;99.90
3860;DHT22;1945;52.036;8.614;2023-04-06T10:15:04;13.20;99.90
3860;DHT22;1945;52.036;8.614;2023-04-06T10:17:31;13.00;99.90
3860;DHT22;1945;52.036;8.614;2023-04-06T10:20:01;13.00;99.90
3860;DHT22;1945;52.036;8.614;2023-04-06T10:22:34;13.20;99.90
3860;DHT22;1945;52.036;8.614;2023-04-06T10:25:02;13.10;99.90
3860;DHT22;1945;52.036;8.614;2023-04-06T10:27:29;13.40;99.90
3860;DHT22;1945;52.036;8.614;2023-04-06T10:30:03;13.40;99.90
3860;DHT22;1945;52.036;8.614;2023-04-06T10:32:37;13.30;99.90
3860;DHT22;1945;52.036;8.614;2023-04-06T10:35:06;13.40;99.90
3860;DHT22;1945;52.036;8.614;2023-04-06T10:37:47;13.30;99.90
3860;DHT22;1945;52.036;8.614;2023-04-06T10:40:19;13.40;99.90
3860;DHT22;1945;52.036;8.614;2023-04-06T10:42:46;13.30;99.90
3860;DHT22;1945;52.036;8.614;2023-04-06T10:45:21;13.50;99.90
3860;DHT22;1945;52.036;8.614;2023-04-06T10:47:48;13.30;99.90
3860;DHT22;1945;52.036;8.614;2023-04-06T10:50:15;13.40;99.90
3860;DHT22;1945;52.036;8.614;2023-04-06T10:52:44;13.50;99.90
3860;DHT22;1945;52.036;8.614;2023-04-06T10:55:12;13.80;99.90
3860;DHT22;1945;52.036;8.614;2023-04-06T10:57:41;13.70;99.90
3860;DHT22;1945;52.036;8.614;2023-04-06T11:00:11;13.70;99.90
3860;DHT22;1945;52.036;8.614;2023-04-06T11:02:39;13.70;99.90
3860;DHT22;1945;52.036;8.614;2023-04-06T11:05:07;13.70;99.90
3860;DHT22;1945;52.036;8.614;2023-04-06T11:07:33;13.60;99.90
3860;DHT22;1945;52.036;8.614;2023-04-06T11:10:00;13.60;99.90
3860;DHT22;1945;52.036;8.614;2023-04-06T11:12:27;13.60;99.90
3860;DHT22;1945;52.036;8.614;2023-04-06T11:14:56;13.90;99.90
3860;DHT22;1945;52.036;8.614;2023-04-06T11:17:27;13.70;99.90
3860;DHT22;1945;52.036;8.614;2023-04-06T11:19:56;13.80;99.90
3860;DHT22;1945;52.036;8.614;2023-04-06T11:22:24;13.90;99.90
3860;DHT22;1945;52.036;8.614;2023-04-06T11:24:51;13.80;99.90
3860;DHT22;1945;52.036;8.614;2023-04-06T11:27:19;13.70;99.90
3860;DHT22;1945;52.036;8.614;2023-04-06T11:29:46;13.80;99.90
3860;DHT22;1945;52.036;8.614;2023-04-06T11:32:20;13.70;99.90
3860;DHT22;1945;52.036;8.614;2023-04-06T11:34:48;13.80;99.90
3860;DHT22;1945;52.036;8.614;2023-04-06T11:37:16;13.80;99.90
3860;DHT22;1945;52.036;8.614;2023-04-06T11:39:47;14.10;99.90
3860;DHT22;1945;52.036;8.614;2023-04-06T11:42:21;14.00;99.90
3860;DHT22;1945;52.036;8.614;2023-04-06T11:44:50;14.00;99.90
3860;DHT22;1945;52.036;8.614;2023-04-06T11:47:18;13.90;99.90
3860;DHT22;1945;52.036;8.614;2023-04-06T11:49:45;14.00;99.90
3860;DHT22;1945;52.036;8.614;2023-04-06T11:52:19;14.00;99.90
3860;DHT22;1945;52.036;8.614;2023-04-06T11:54:46;13.90;99.90
3860;DHT22;1945;52.036;8.614;2023-04-06T11:57:15;14.00;99.90
3860;DHT22;1945;52.036;8.614;2023-04-06T11:59:42;14.10;99.90
3860;DHT22;1945;52.036;8.614;2023-04-06T12:02:09;14.00;99.90
3860;DHT22;1945;52.036;8.614;2023-04-06T12:04:36;14.00;99.90
3860;DHT22;1945;52.036;8.614;2023-04-06T12:07:05;14.20;99.90
3860;DHT22;1945;52.036;8.614;2023-04-06T12:09:33;14.10;99.90
3860;DHT22;1945;52.036;8.614;2023-04-06T12:12:01;14.10;99.90
3860;DHT22;1945;52.036;8.614;2023-04-06T12:14:28;14.00;72.20
3860;DHT22;1945;52.036;8.614;2023-04-06T12:16:56;14.00;92.20
3860;DHT22;1945;52.036;8.614;2023-04-06T12:19:22;14.00;90.20
3860;DHT22;1945;52.036;8.614;2023-04-06T12:21:51;14.20;99.90
3860;DHT22;1945;52.036;8.614;2023-04-06T12:24:18;14.00;43.30
3860;DHT22;1945;52.036;8.614;2023-04-06T12:26:46;14.10;83.70
3860;DHT22;1945;52.036;8.614;2023-04-06T12:29:13;14.20;76.40
3860;DHT22;1945;52.036;8.614;2023-04-06T12:31:40;14.30;66.90
3860;DHT22;1945;52.036;8.614;2023-04-06T12:34:09;14.20;1.00
3860;DHT22;1945;52.036;8.614;2023-04-06T12:36:36;14.10;1.00
3860;DHT22;1945;52.036;8.614;2023-04-06T12:39:04;14.10;1.00
3860;DHT22;1945;52.036;8.614;2023-04-06T12:41:32;14.30;1.00
3860;DHT22;1945;52.036;8.614;2023-04-06T12:44:00;14.10;1.00
3860;DHT22;1945;52.036;8.614;2023-04-06T12:46:27;14.10;1.00
3860;DHT22;1945;52.036;8.614;2023-04-06T12:48:56;14.00;1.00
3860;DHT22;1945;52.036;8.614;2023-04-06T12:51:24;14.00;1.00
3860;DHT22;1945;52.036;8.614;2023-04-06T12:53:53;14.00;1.00
3860;DHT22;1945;52.036;8.614;2023-04-06T12:56:20;14.10;1.00
3860;DHT22;1945;52.036;8.614;2023-04-06T12:58:48;14.10;1.00
3860;DHT22;1945;52.036;8.614;2023-04-06T13:01:16;14.30;1.00
3860;DHT22;1945;52.036;8.614;2023-04-06T13:03:43;14.20;1.00
3860;DHT22;1945;52.036;8.614;2023-04-06T13:06:10;14.30;1.00
3860;DHT22;1945;52.036;8.614;2023-04-06T13:08:39;14.30;1.00
3860;DHT22;1945;52.036;8.614;2023-04-06T13:11:06;14.40;1.00
3860;DHT22;1945;52.036;8.614;2023-04-06T13:13:34;14.40;1.00
3860;DHT22;1945;52.036;8.614;2023-04-06T13:16:04;14.30;1.00
3860;DHT22;1945;52.036;8.614;2023-04-06T13:18:34;14.20;1.00
3860;DHT22;1945;52.036;8.614;2023-04-06T13:21:02;14.10;1.00
3860;DHT22;1945;52.036;8.614;2023-04-06T13:23:28;14.10;1.00
3860;DHT22;1945;52.036;8.614;2023-04-06T13:25:59;14.10;1.00
3860;DHT22;1945;52.036;8.614;2023-04-06T13:28:26;14.20;1.00
3860;DHT22;1945;52.036;8.614;2023-04-06T13:30:53;14.00;1.00
3860;DHT22;1945;52.036;8.614;2023-04-06T13:33:20;13.90;1.00
3860;DHT22;1945;52.036;8.614;2023-04-06T13:35:48;14.00;1.00
3860;DHT22;1945;52.036;8.614;2023-04-06T13:38:15;13.90;1.00
3860;DHT22;1945;52.036;8.614;2023-04-06T13:40:42;13.90;1.00
3860;DHT22;1945;52.036;8.614;2023-04-06T13:43:09;13.90;1.00
3860;DHT22;1945;52.036;8.614;2023-04-06T13:45:36;13.90;1.00
3860;DHT22;1945;52.036;8.614;2023-04-06T13:48:03;13.90;1.00
3860;DHT22;1945;52.036;8.614;2023-04-06T13:50:30;13.90;1.00
3860;DHT22;1945;52.036;8.614;2023-04-06T13:52:59;13.90;1.00
3860;DHT22;1945;52.036;8.614;2023-04-06T13:55:25;13.80;1.00
3860;DHT22;1945;52.036;8.614;2023-04-06T13:57:52;14.00;1.00
3860;DHT22;1945;52.036;8.614;2023-04-06T14:00:20;13.80;1.00
3860;DHT22;1945;52.036;8.614;2023-04-06T14:02:47;13.80;1.00
3860;DHT22;1945;52.036;8.614;2023-04-06T14:05:14;13.90;1.00
3860;DHT22;1945;52.036;8.614;2023-04-06T14:07:41;13.90;1.00
3860;DHT22;1945;52.036;8.614;2023-04-06T14:10:09;14.00;1.00
3860;DHT22;1945;52.036;8.614;2023-04-06T14:12:39;14.00;1.00
3860;DHT22;1945;52.036;8.614;2023-04-06T14:15:08;13.90;1.00
3860;DHT22;1945;52.036;8.614;2023-04-06T14:17:34;13.90;1.00
3860;DHT22;1945;52.036;8.614;2023-04-06T14:20:01;13.80;1.00
3860;DHT22;1945;52.036;8.614;2023-04-06T14:22:28;14.20;1.00
3860;DHT22;1945;52.036;8.614;2023-04-06T14:24:55;13.70;1.00
3860;DHT22;1945;52.036;8.614;2023-04-06T14:27:23;13.60;1.00
3860;DHT22;1945;52.036;8.614;2023-04-06T14:29:50;13.80;1.00
3860;DHT22;1945;52.036;8.614;2023-04-06T14:32:19;13.50;1.00
3860;DHT22;1945;52.036;8.614;2023-04-06T14:34:45;13.50;1.00
3860;DHT22;1945;52.036;8.614;2023-04-06T14:37:12;13.50;1.00
3860;DHT22;1945;52.036;8.614;2023-04-06T14:39:39;13.50;1.00
3860;DHT22;1945;52.036;8.614;2023-04-06T14:42:05;13.50;1.00
3860;DHT22;1945;52.036;8.614;2023-04-06T14:44:34;13.40;1.00
3860;DHT22;1945;52.036;8.614;2023-04-06T14:47:02;13.40;1.00
3860;DHT22;1945;52.036;8.614;2023-04-06T14:49:29;13.50;1.00
3860;DHT22;1945;52.036;8.614;2023-04-06T14:51:56;13.40;1.00
3860;DHT22;1945;52.036;8.614;2023-04-06T14:54:24;13.40;1.00
3860;DHT22;1945;52.036;8.614;2023-04-06T14:56:50;13.70;1.00
3860;DHT22;1945;52.036;8.614;2023-04-06T14:59:17;13.40;1.00
3860;DHT22;1945;52.036;8.614;2023-04-06T15:01:45;13.50;1.00
3860;DHT22;1945;52.036;8.614;2023-04-06T15:04:12;13.50;1.00
3860;DHT22;1945;52.036;8.614;2023-04-06T15:06:39;13.50;1.00
3860;DHT22;1945;52.036;8.614;2023-04-06T15:09:06;13.60;1.00
3860;DHT22;1945;52.036;8.614;2023-04-06T15:11:32;13.60;1.00
3860;DHT22;1945;52.036;8.614;2023-04-06T15:14:00;13.60;1.00
3860;DHT22;1945;52.036;8.614;2023-04-06T15:16:27;13.60;1.00
3860;DHT22;1945;52.036;8.614;2023-04-06T15:18:58;13.60;1.00
3860;DHT22;1945;52.036;8.614;2023-04-06T15:21:27;13.70;1.00
3860;DHT22;1945;52.036;8.614;2023-04-06T15:23:54;13.70;1.00
3860;DHT22;1945;52.036;8.614;2023-04-06T15:26:21;13.60;1.00
3860;DHT22;1945;52.036;8.614;2023-04-06T15:28:47;13.60;1.00
3860;DHT22;1945;52.036;8.614;2023-04-06T15:31:14;13.60;1.00
3860;DHT22;1945;52.036;8.614;2023-04-06T15:33:41;13.70;1.00
3860;DHT22;1945;52.036;8.614;2023-04-06T15:36:21;13.70;1.00
3860;DHT22;1945;52.036;8.614;2023-04-06T15:38:48;13.70;1.00
3860;DHT22;1945;52.036;8.614;2023-04-06T15:41:15;13.70;1.00
3860;DHT22;1945;52.036;8.614;2023-04-06T15:43:42;13.70;1.00
3860;DHT22;1945;52.036;8.614;2023-04-06T15:46:08;13.80;1.00
3860;DHT22;1945;52.036;8.614;2023-04-06T15:48:35;13.80;1.00
3860;DHT22;1945;52.036;8.614;2023-04-06T15:51:02;13.80;1.00
3860;DHT22;1945;52.036;8.614;2023-04-06T15:53:30;13.80;1.00
3860;DHT22;1945;52.036;8.614;2023-04-06T15:55:58;13.70;1.00
3860;DHT22;1945;52.036;8.614;2023-04-06T15:58:25;13.80;1.00
3860;DHT22;1945;52.036;8.614;2023-04-06T16:00:52;13.80;1.00
3860;DHT22;1945;52.036;8.614;2023-04-06T16:03:19;13.70;1.00
3860;DHT22;1945;52.036;8.614;2023-04-06T16:05:46;13.70;1.00
3860;DHT22;1945;52.036;8.614;2023-04-06T16:08:14;13.60;1.00
3860;DHT22;1945;52.036;8.614;2023-04-06T16:10:42;13.70;1.00
3860;DHT22;1945;52.036;8.614;2023-04-06T16:13:09;14.00;1.00
3860;DHT22;1945;52.036;8.614;2023-04-06T16:15:36;13.70;1.00
3860;DHT22;1945;52.036;8.614;2023-04-06T16:18:03;13.60;1.00